sensor_id;sensor_type;location;lat;lon;timestamp;P1;durP1;ratioP1;P2;durP2;ratioP2
15114;SDS011;7658;51.456;7.622;2023-12-07T00:00:51;70.73;;;41.10;;
15114;SDS011;7658;51.456;7.622;2023-12-07T00:03:17;74.50;;;41.80;;
15114;SDS011;7658;51.456;7.622;2023-12-07T00:05:43;73.57;;;41.67;;
15114;SDS011;7658;51.456;7.622;2023-12-07T00:08:09;72.93;;;38.67;;
15114;SDS011;7658;51.456;7.622;2023-12-07T00:10:36;66.83;;;39.67;;
15114;SDS011;7658;51.456;7.622;2023-12-07T00:13:02;75.60;;;40.47;;
15114;SDS011;7658;51.456;7.622;2023-12-07T00:15:28;76.10;;;37.93;;
15114;SDS011;7658;51.456;7.622;2023-12-07T00:17:53;72.73;;;39.20;;
15114;SDS011;7658;51.456;7.622;2023-12-07T00:20:19;70.20;;;40.57;;
15114;SDS011;7658;51.456;7.622;2023-12-07T00:22:45;69.53;;;38.33;;
15114;SDS011;7658;51.456;7.622;2023-12-07T00:25:11;69.97;;;36.97;;
15114;SDS011;7658;51.456;7.622;2023-12-07T00:27:36;70.20;;;40.37;;
15114;SDS011;7658;51.456;7.622;2023-12-07T00:30:02;71.27;;;38.63;;
15114;SDS011;7658;51.456;7.622;2023-12-07T00:32:28;67.73;;;37.33;;
15114;SDS011;7658;51.456;7.622;2023-12-07T00:34:54;72.33;;;39.23;;
15114;SDS011;7658;51.456;7.622;2023-12-07T00:37:20;72.23;;;38.97;;
15114;SDS011;7658;51.456;7.622;2023-12-07T00:39:46;75.23;;;41.03;;
15114;SDS011;7658;51.456;7.622;2023-12-07T00:42:12;69.03;;;36.63;;
15114;SDS011;7658;51.456;7.622;2023-12-07T00:44:41;65.93;;;37.37;;
15114;SDS011;7658;51.456;7.622;2023-12-07T00:47:06;69.30;;;38.13;;
15114;SDS011;7658;51.456;7.622;2023-12-07T00:49:32;68.70;;;37.23;;
15114;SDS011;7658;51.456;7.622;2023-12-07T00:51:58;62.93;;;35.73;;
15114;SDS011;7658;51.456;7.622;2023-12-07T00:54:24;70.07;;;38.77;;
15114;SDS011;7658;51.456;7.622;2023-12-07T00:56:50;65.70;;;36.43;;
15114;SDS011;7658;51.456;7.622;2023-12-07T00:59:16;73.77;;;37.73;;
15114;SDS011;7658;51.456;7.622;2023-12-07T01:01:42;70.20;;;39.13;;
15114;SDS011;7658;51.456;7.622;2023-12-07T01:04:07;73.03;;;38.50;;
15114;SDS011;7658;51.456;7.622;2023-12-07T01:06:33;67.00;;;36.23;;
15114;SDS011;7658;51.456;7.622;2023-12-07T01:08:59;66.30;;;35.57;;
15114;SDS011;7658;51.456;7.622;2023-12-07T01:11:25;68.07;;;36.83;;
15114;SDS011;7658;51.456;7.622;2023-12-07T01:13:51;71.07;;;36.63;;
15114;SDS011;7658;51.456;7.622;2023-12-07T01:16:16;68.77;;;35.77;;
15114;SDS011;7658;51.456;7.622;2023-12-07T01:18:42;68.87;;;36.17;;
15114;SDS011;7658;51.456;7.622;2023-12-07T01:21:09;69.43;;;35.47;;
15114;SDS011;7658;51.456;7.622;2023-12-07T01:23:35;70.47;;;37.07;;
15114;SDS011;7658;51.456;7.622;2023-12-07T01:26:00;68.87;;;36.43;;
15114;SDS011;7658;51.456;7.622;2023-12-07T01:28:27;66.60;;;34.80;;
15114;SDS011;7658;51.456;7.622;2023-12-07T01:30:54;70.33;;;35.47;;
15114;SDS011;7658;51.456;7.622;2023-12-07T01:33:20;68.80;;;36.00;;
15114;SDS011;7658;51.456;7.622;2023-12-07T01:35:46;64.43;;;34.70;;
15114;SDS011;7658;51.456;7.622;2023-12-07T01:38:12;63.93;;;35.53;;
15114;SDS011;7658;51.456;7.622;2023-12-07T01:40:38;60.07;;;33.17;;
15114;SDS011;7658;51.456;7.622;2023-12-07T01:43:04;73.90;;;34.37;;
15114;SDS011;7658;51.456;7.622;2023-12-07T01:45:29;66.90;;;34.90;;
15114;SDS011;7658;51.456;7.622;2023-12-07T01:47:55;68.17;;;36.97;;
15114;SDS011;7658;51.456;7.622;2023-12-07T01:50:23;71.67;;;35.60;;
15114;SDS011;7658;51.456;7.622;2023-12-07T01:52:51;69.67;;;37.57;;
15114;SDS011;7658;51.456;7.622;2023-12-07T01:55:22;72.63;;;35.53;;
15114;SDS011;7658;51.456;7.622;2023-12-07T01:57:48;69.83;;;36.40;;
15114;SDS011;7658;51.456;7.622;2023-12-07T02:00:14;69.47;;;36.53;;
15114;SDS011;7658;51.456;7.622;2023-12-07T02:02:41;73.67;;;37.37;;
15114;SDS011;7658;51.456;7.622;2023-12-07T02:05:08;70.63;;;36.23;;
15114;SDS011;7658;51.456;7.622;2023-12-07T02:07:34;69.07;;;37.23;;
15114;SDS011;7658;51.456;7.622;2023-12-07T02:10:00;81.53;;;40.27;;
15114;SDS011;7658;51.456;7.622;2023-12-07T02:12:26;66.87;;;36.53;;
15114;SDS011;7658;51.456;7.622;2023-12-07T02:14:54;73.50;;;36.40;;
15114;SDS011;7658;51.456;7.622;2023-12-07T02:17:25;80.43;;;38.53;;
15114;SDS011;7658;51.456;7.622;2023-12-07T02:20:03;82.53;;;38.43;;
15114;SDS011;7658;51.456;7.622;2023-12-07T02:22:56;76.70;;;35.97;;
15114;SDS011;7658;51.456;7.622;2023-12-07T02:25:31;66.60;;;36.77;;
15114;SDS011;7658;51.456;7.622;2023-12-07T02:28:34;70.00;;;36.77;;
15114;SDS011;7658;51.456;7.622;2023-12-07T02:31:00;87.30;;;40.13;;
15114;SDS011;7658;51.456;7.622;2023-12-07T02:33:26;71.73;;;36.77;;
15114;SDS011;7658;51.456;7.622;2023-12-07T02:35:52;74.00;;;36.60;;
15114;SDS011;7658;51.456;7.622;2023-12-07T02:38:18;72.97;;;36.80;;
15114;SDS011;7658;51.456;7.622;2023-12-07T02:40:45;69.83;;;34.83;;
15114;SDS011;7658;51.456;7.622;2023-12-07T02:43:12;71.23;;;35.87;;
15114;SDS011;7658;51.456;7.622;2023-12-07T02:45:39;77.20;;;37.03;;
15114;SDS011;7658;51.456;7.622;2023-12-07T02:48:04;61.87;;;34.03;;
15114;SDS011;7658;51.456;7.622;2023-12-07T02:50:30;68.27;;;36.23;;
15114;SDS011;7658;51.456;7.622;2023-12-07T02:52:56;68.97;;;36.93;;
15114;SDS011;7658;51.456;7.622;2023-12-07T02:55:22;74.53;;;37.10;;
15114;SDS011;7658;51.456;7.622;2023-12-07T02:57:47;76.00;;;38.70;;
15114;SDS011;7658;51.456;7.622;2023-12-07T03:00:14;76.07;;;38.17;;
15114;SDS011;7658;51.456;7.622;2023-12-07T03:02:40;77.27;;;38.03;;
15114;SDS011;7658;51.456;7.622;2023-12-07T03:05:07;76.50;;;37.03;;
15114;SDS011;7658;51.456;7.622;2023-12-07T03:07:33;74.03;;;36.03;;
15114;SDS011;7658;51.456;7.622;2023-12-07T03:09:59;68.00;;;36.17;;
15114;SDS011;7658;51.456;7.622;2023-12-07T03:12:25;68.10;;;37.67;;
15114;SDS011;7658;51.456;7.622;2023-12-07T03:14:51;72.90;;;36.77;;
15114;SDS011;7658;51.456;7.622;2023-12-07T03:17:17;69.57;;;35.57;;
15114;SDS011;7658;51.456;7.622;2023-12-07T03:19:43;74.80;;;37.20;;
15114;SDS011;7658;51.456;7.622;2023-12-07T03:22:08;72.67;;;36.43;;
15114;SDS011;7658;51.456;7.622;2023-12-07T03:24:36;70.13;;;36.07;;
15114;SDS011;7658;51.456;7.622;2023-12-07T03:27:03;63.20;;;33.83;;
15114;SDS011;7658;51.456;7.622;2023-12-07T03:29:29;63.87;;;31.77;;
15114;SDS011;7658;51.456;7.622;2023-12-07T03:31:56;65.97;;;33.63;;
15114;SDS011;7658;51.456;7.622;2023-12-07T03:34:22;69.90;;;37.57;;
15114;SDS011;7658;51.456;7.622;2023-12-07T03:36:49;64.67;;;33.77;;
15114;SDS011;7658;51.456;7.622;2023-12-07T03:39:15;63.70;;;35.60;;
15114;SDS011;7658;51.456;7.622;2023-12-07T03:41:43;59.40;;;32.40;;
15114;SDS011;7658;51.456;7.622;2023-12-07T03:44:09;63.57;;;32.70;;
15114;SDS011;7658;51.456;7.622;2023-12-07T03:46:35;61.13;;;34.43;;
15114;SDS011;7658;51.456;7.622;2023-12-07T03:49:01;62.27;;;31.60;;
15114;SDS011;7658;51.456;7.622;2023-12-07T03:51:27;52.30;;;28.77;;
15114;SDS011;7658;51.456;7.622;2023-12-07T03:53:54;55.87;;;32.70;;
15114;SDS011;7658;51.456;7.622;2023-12-07T03:56:27;50.90;;;28.70;;
15114;SDS011;7658;51.456;7.622;2023-12-07T03:58:54;51.93;;;30.63;;
15114;SDS011;7658;51.456;7.622;2023-12-07T04:01:24;50.93;;;29.77;;
15114;SDS011;7658;51.456;7.622;2023-12-07T04:03:51;49.97;;;28.00;;
15114;SDS011;7658;51.456;7.622;2023-12-07T04:06:17;45.80;;;27.57;;
15114;SDS011;7658;51.456;7.622;2023-12-07T04:08:43;48.07;;;29.53;;
15114;SDS011;7658;51.456;7.622;2023-12-07T04:11:10;52.67;;;30.33;;
15114;SDS011;7658;51.456;7.622;2023-12-07T04:13:35;50.37;;;29.87;;
15114;SDS011;7658;51.456;7.622;2023-12-07T04:16:01;50.33;;;29.40;;
15114;SDS011;7658;51.456;7.622;2023-12-07T04:18:28;58.50;;;31.03;;
15114;SDS011;7658;51.456;7.622;2023-12-07T04:20:54;49.23;;;30.00;;
15114;SDS011;7658;51.456;7.622;2023-12-07T04:23:20;50.70;;;28.77;;
15114;SDS011;7658;51.456;7.622;2023-12-07T04:25:46;49.80;;;29.90;;
15114;SDS011;7658;51.456;7.622;2023-12-07T04:28:11;48.13;;;28.90;;
15114;SDS011;7658;51.456;7.622;2023-12-07T04:30:37;54.03;;;29.77;;
15114;SDS011;7658;51.456;7.622;2023-12-07T04:33:03;52.07;;;28.60;;
15114;SDS011;7658;51.456;7.622;2023-12-07T04:35:29;45.40;;;28.07;;
15114;SDS011;7658;51.456;7.622;2023-12-07T04:37:55;51.30;;;29.17;;
15114;SDS011;7658;51.456;7.622;2023-12-07T04:40:21;49.67;;;27.77;;
15114;SDS011;7658;51.456;7.622;2023-12-07T04:42:49;52.43;;;29.10;;
15114;SDS011;7658;51.456;7.622;2023-12-07T04:45:15;51.53;;;28.87;;
15114;SDS011;7658;51.456;7.622;2023-12-07T04:47:41;53.30;;;29.33;;
15114;SDS011;7658;51.456;7.622;2023-12-07T04:50:07;52.43;;;29.00;;
15114;SDS011;7658;51.456;7.622;2023-12-07T04:52:34;48.77;;;28.47;;
15114;SDS011;7658;51.456;7.622;2023-12-07T04:55:00;47.37;;;27.60;;
15114;SDS011;7658;51.456;7.622;2023-12-07T04:57:26;49.67;;;29.37;;
15114;SDS011;7658;51.456;7.622;2023-12-07T04:59:52;55.47;;;31.57;;
15114;SDS011;7658;51.456;7.622;2023-12-07T05:02:18;50.87;;;30.17;;
15114;SDS011;7658;51.456;7.622;2023-12-07T05:04:44;52.80;;;30.03;;
15114;SDS011;7658;51.456;7.622;2023-12-07T05:07:11;53.13;;;29.07;;
15114;SDS011;7658;51.456;7.622;2023-12-07T05:09:38;54.87;;;28.53;;
15114;SDS011;7658;51.456;7.622;2023-12-07T05:12:04;54.37;;;27.93;;
15114;SDS011;7658;51.456;7.622;2023-12-07T05:14:30;51.03;;;29.67;;
15114;SDS011;7658;51.456;7.622;2023-12-07T05:16:57;52.83;;;30.13;;
15114;SDS011;7658;51.456;7.622;2023-12-07T05:19:23;56.13;;;30.67;;
15114;SDS011;7658;51.456;7.622;2023-12-07T05:21:49;54.83;;;30.00;;
15114;SDS011;7658;51.456;7.622;2023-12-07T05:24:15;55.43;;;30.97;;
15114;SDS011;7658;51.456;7.622;2023-12-07T05:26:42;55.27;;;30.90;;
15114;SDS011;7658;51.456;7.622;2023-12-07T05:29:11;59.50;;;31.37;;
15114;SDS011;7658;51.456;7.622;2023-12-07T05:31:37;50.97;;;29.07;;
15114;SDS011;7658;51.456;7.622;2023-12-07T05:34:03;59.20;;;31.13;;
15114;SDS011;7658;51.456;7.622;2023-12-07T05:36:29;58.70;;;31.37;;
15114;SDS011;7658;51.456;7.622;2023-12-07T05:38:55;51.07;;;29.30;;
15114;SDS011;7658;51.456;7.622;2023-12-07T05:41:21;56.53;;;30.17;;
15114;SDS011;7658;51.456;7.622;2023-12-07T05:43:46;54.27;;;29.60;;
15114;SDS011;7658;51.456;7.622;2023-12-07T05:46:13;54.10;;;29.63;;
15114;SDS011;7658;51.456;7.622;2023-12-07T05:48:39;53.07;;;29.63;;
15114;SDS011;7658;51.456;7.622;2023-12-07T05:51:05;54.27;;;30.07;;
15114;SDS011;7658;51.456;7.622;2023-12-07T05:53:31;55.27;;;30.60;;
15114;SDS011;7658;51.456;7.622;2023-12-07T05:55:58;57.27;;;30.33;;
15114;SDS011;7658;51.456;7.622;2023-12-07T05:58:24;53.87;;;30.27;;
15114;SDS011;7658;51.456;7.622;2023-12-07T06:00:50;48.27;;;28.50;;
15114;SDS011;7658;51.456;7.622;2023-12-07T06:03:16;58.40;;;31.13;;
15114;SDS011;7658;51.456;7.622;2023-12-07T06:05:41;59.60;;;29.97;;
15114;SDS011;7658;51.456;7.622;2023-12-07T06:08:08;56.23;;;32.00;;
15114;SDS011;7658;51.456;7.622;2023-12-07T06:10:34;68.40;;;32.70;;
15114;SDS011;7658;51.456;7.622;2023-12-07T06:13:01;53.90;;;30.47;;
15114;SDS011;7658;51.456;7.622;2023-12-07T06:15:26;55.10;;;29.90;;
15114;SDS011;7658;51.456;7.622;2023-12-07T06:17:53;56.30;;;30.57;;
15114;SDS011;7658;51.456;7.622;2023-12-07T06:20:19;56.03;;;31.17;;
15114;SDS011;7658;51.456;7.622;2023-12-07T06:22:45;56.70;;;30.03;;
15114;SDS011;7658;51.456;7.622;2023-12-07T06:25:11;58.23;;;31.70;;
15114;SDS011;7658;51.456;7.622;2023-12-07T06:27:37;59.57;;;31.63;;
15114;SDS011;7658;51.456;7.622;2023-12-07T06:30:04;50.37;;;30.67;;
15114;SDS011;7658;51.456;7.622;2023-12-07T06:32:33;60.53;;;31.40;;
15114;SDS011;7658;51.456;7.622;2023-12-07T06:34:59;59.60;;;30.87;;
15114;SDS011;7658;51.456;7.622;2023-12-07T06:37:25;57.17;;;28.37;;
15114;SDS011;7658;51.456;7.622;2023-12-07T06:39:51;54.70;;;29.00;;
15114;SDS011;7658;51.456;7.622;2023-12-07T06:42:17;51.03;;;29.27;;
15114;SDS011;7658;51.456;7.622;2023-12-07T06:44:43;48.70;;;28.70;;
15114;SDS011;7658;51.456;7.622;2023-12-07T06:47:13;48.33;;;28.07;;
15114;SDS011;7658;51.456;7.622;2023-12-07T06:49:39;44.30;;;27.07;;
15114;SDS011;7658;51.456;7.622;2023-12-07T06:52:05;51.60;;;27.80;;
15114;SDS011;7658;51.456;7.622;2023-12-07T06:54:31;40.50;;;24.90;;
15114;SDS011;7658;51.456;7.622;2023-12-07T06:56:57;45.33;;;27.57;;
15114;SDS011;7658;51.456;7.622;2023-12-07T06:59:22;44.33;;;26.30;;
15114;SDS011;7658;51.456;7.622;2023-12-07T07:01:48;42.33;;;25.87;;
15114;SDS011;7658;51.456;7.622;2023-12-07T07:04:14;48.40;;;26.30;;
15114;SDS011;7658;51.456;7.622;2023-12-07T07:06:41;39.73;;;24.47;;
15114;SDS011;7658;51.456;7.622;2023-12-07T07:09:07;38.60;;;23.87;;
15114;SDS011;7658;51.456;7.622;2023-12-07T07:11:33;41.77;;;24.53;;
15114;SDS011;7658;51.456;7.622;2023-12-07T07:13:59;41.80;;;25.30;;
15114;SDS011;7658;51.456;7.622;2023-12-07T07:16:26;41.17;;;25.17;;
15114;SDS011;7658;51.456;7.622;2023-12-07T07:18:51;39.57;;;25.30;;
15114;SDS011;7658;51.456;7.622;2023-12-07T07:21:17;42.87;;;25.50;;
15114;SDS011;7658;51.456;7.622;2023-12-07T07:23:45;44.13;;;25.30;;
15114;SDS011;7658;51.456;7.622;2023-12-07T07:26:11;38.10;;;26.43;;
15114;SDS011;7658;51.456;7.622;2023-12-07T07:28:41;51.07;;;31.17;;
15114;SDS011;7658;51.456;7.622;2023-12-07T07:31:07;52.80;;;30.73;;
15114;SDS011;7658;51.456;7.622;2023-12-07T07:33:34;40.37;;;25.07;;
15114;SDS011;7658;51.456;7.622;2023-12-07T07:36:00;42.37;;;26.07;;
15114;SDS011;7658;51.456;7.622;2023-12-07T07:38:26;42.70;;;26.70;;
15114;SDS011;7658;51.456;7.622;2023-12-07T07:40:51;37.80;;;23.57;;
15114;SDS011;7658;51.456;7.622;2023-12-07T07:43:17;37.47;;;25.33;;
15114;SDS011;7658;51.456;7.622;2023-12-07T07:45:43;39.93;;;25.03;;
15114;SDS011;7658;51.456;7.622;2023-12-07T07:48:10;40.30;;;24.40;;
15114;SDS011;7658;51.456;7.622;2023-12-07T07:50:37;34.17;;;23.20;;
15114;SDS011;7658;51.456;7.622;2023-12-07T07:53:03;34.93;;;23.20;;
15114;SDS011;7658;51.456;7.622;2023-12-07T07:55:29;36.07;;;23.57;;
15114;SDS011;7658;51.456;7.622;2023-12-07T07:57:56;39.50;;;24.17;;
15114;SDS011;7658;51.456;7.622;2023-12-07T08:00:21;37.77;;;24.17;;
15114;SDS011;7658;51.456;7.622;2023-12-07T08:02:51;34.70;;;23.17;;
15114;SDS011;7658;51.456;7.622;2023-12-07T08:05:17;33.03;;;24.13;;
15114;SDS011;7658;51.456;7.622;2023-12-07T08:07:43;38.03;;;24.17;;
15114;SDS011;7658;51.456;7.622;2023-12-07T08:10:09;38.27;;;25.50;;
15114;SDS011;7658;51.456;7.622;2023-12-07T08:12:34;36.10;;;24.23;;
15114;SDS011;7658;51.456;7.622;2023-12-07T08:15:01;34.07;;;22.63;;
15114;SDS011;7658;51.456;7.622;2023-12-07T08:17:27;36.77;;;25.00;;
15114;SDS011;7658;51.456;7.622;2023-12-07T08:19:53;39.50;;;24.07;;
15114;SDS011;7658;51.456;7.622;2023-12-07T08:22:19;37.83;;;24.20;;
15114;SDS011;7658;51.456;7.622;2023-12-07T08:24:45;34.47;;;24.23;;
15114;SDS011;7658;51.456;7.622;2023-12-07T08:27:11;37.80;;;25.03;;
15114;SDS011;7658;51.456;7.622;2023-12-07T08:29:36;35.10;;;23.77;;
15114;SDS011;7658;51.456;7.622;2023-12-07T08:32:02;41.00;;;25.47;;
15114;SDS011;7658;51.456;7.622;2023-12-07T08:34:29;37.10;;;24.57;;
15114;SDS011;7658;51.456;7.622;2023-12-07T08:36:55;39.90;;;25.53;;
15114;SDS011;7658;51.456;7.622;2023-12-07T08:39:21;45.10;;;26.97;;
15114;SDS011;7658;51.456;7.622;2023-12-07T08:41:46;45.37;;;24.80;;
15114;SDS011;7658;51.456;7.622;2023-12-07T08:44:12;34.00;;;24.70;;
15114;SDS011;7658;51.456;7.622;2023-12-07T08:46:38;44.20;;;25.93;;
15114;SDS011;7658;51.456;7.622;2023-12-07T08:49:04;46.40;;;27.63;;
15114;SDS011;7658;51.456;7.622;2023-12-07T08:51:29;42.10;;;26.33;;
15114;SDS011;7658;51.456;7.622;2023-12-07T08:53:55;40.07;;;26.57;;
15114;SDS011;7658;51.456;7.622;2023-12-07T08:56:21;44.07;;;26.50;;
15114;SDS011;7658;51.456;7.622;2023-12-07T08:58:47;44.90;;;27.77;;
15114;SDS011;7658;51.456;7.622;2023-12-07T09:01:13;40.20;;;26.03;;
15114;SDS011;7658;51.456;7.622;2023-12-07T09:03:38;42.10;;;26.57;;
15114;SDS011;7658;51.456;7.622;2023-12-07T09:06:06;44.33;;;26.47;;
15114;SDS011;7658;51.456;7.622;2023-12-07T09:08:33;42.73;;;26.30;;
15114;SDS011;7658;51.456;7.622;2023-12-07T09:10:59;38.40;;;26.30;;
15114;SDS011;7658;51.456;7.622;2023-12-07T09:13:25;42.60;;;27.63;;
15114;SDS011;7658;51.456;7.622;2023-12-07T09:15:50;40.23;;;25.30;;
15114;SDS011;7658;51.456;7.622;2023-12-07T09:18:16;42.40;;;27.37;;
15114;SDS011;7658;51.456;7.622;2023-12-07T09:20:42;43.03;;;26.50;;
15114;SDS011;7658;51.456;7.622;2023-12-07T09:23:11;39.57;;;25.83;;
15114;SDS011;7658;51.456;7.622;2023-12-07T09:25:38;39.30;;;25.50;;
15114;SDS011;7658;51.456;7.622;2023-12-07T09:28:05;37.07;;;24.77;;
15114;SDS011;7658;51.456;7.622;2023-12-07T09:30:31;39.23;;;25.63;;
15114;SDS011;7658;51.456;7.622;2023-12-07T09:32:58;40.53;;;25.10;;
15114;SDS011;7658;51.456;7.622;2023-12-07T09:35:24;43.90;;;26.97;;
15114;SDS011;7658;51.456;7.622;2023-12-07T09:37:50;47.27;;;27.97;;
15114;SDS011;7658;51.456;7.622;2023-12-07T09:40:17;45.30;;;27.77;;
15114;SDS011;7658;51.456;7.622;2023-12-07T09:42:45;41.53;;;25.97;;
15114;SDS011;7658;51.456;7.622;2023-12-07T09:45:12;50.63;;;29.83;;
15114;SDS011;7658;51.456;7.622;2023-12-07T09:47:39;44.03;;;26.43;;
15114;SDS011;7658;51.456;7.622;2023-12-07T09:50:07;42.23;;;28.00;;
15114;SDS011;7658;51.456;7.622;2023-12-07T09:52:33;47.60;;;29.23;;
15114;SDS011;7658;51.456;7.622;2023-12-07T09:55:01;46.40;;;28.77;;
15114;SDS011;7658;51.456;7.622;2023-12-07T09:57:28;45.00;;;27.97;;
15114;SDS011;7658;51.456;7.622;2023-12-07T09:59:57;43.47;;;26.87;;
15114;SDS011;7658;51.456;7.622;2023-12-07T10:02:23;41.50;;;25.97;;
15114;SDS011;7658;51.456;7.622;2023-12-07T10:05:06;40.60;;;26.87;;
15114;SDS011;7658;51.456;7.622;2023-12-07T10:07:33;44.43;;;27.50;;
15114;SDS011;7658;51.456;7.622;2023-12-07T10:10:02;41.73;;;26.73;;
15114;SDS011;7658;51.456;7.622;2023-12-07T10:12:28;41.60;;;25.83;;
15114;SDS011;7658;51.456;7.622;2023-12-07T10:15:00;41.33;;;26.47;;
15114;SDS011;7658;51.456;7.622;2023-12-07T10:17:46;34.97;;;24.23;;
15114;SDS011;7658;51.456;7.622;2023-12-07T10:20:14;37.47;;;23.90;;
15114;SDS011;7658;51.456;7.622;2023-12-07T10:22:45;33.50;;;23.93;;
15114;SDS011;7658;51.456;7.622;2023-12-07T10:25:11;34.60;;;23.40;;
15114;SDS011;7658;51.456;7.622;2023-12-07T10:27:40;32.27;;;23.17;;
15114;SDS011;7658;51.456;7.622;2023-12-07T10:30:09;35.03;;;22.50;;
15114;SDS011;7658;51.456;7.622;2023-12-07T10:32:37;29.33;;;21.37;;
15114;SDS011;7658;51.456;7.622;2023-12-07T10:35:05;34.30;;;23.13;;
15114;SDS011;7658;51.456;7.622;2023-12-07T10:37:32;30.97;;;21.63;;
15114;SDS011;7658;51.456;7.622;2023-12-07T10:39:58;30.77;;;21.87;;
15114;SDS011;7658;51.456;7.622;2023-12-07T10:42:24;28.03;;;19.50;;
15114;SDS011;7658;51.456;7.622;2023-12-07T10:44:53;27.43;;;20.47;;
15114;SDS011;7658;51.456;7.622;2023-12-07T10:47:23;25.93;;;20.13;;
15114;SDS011;7658;51.456;7.622;2023-12-07T10:49:50;25.00;;;18.23;;
15114;SDS011;7658;51.456;7.622;2023-12-07T10:52:20;22.57;;;17.37;;
15114;SDS011;7658;51.456;7.622;2023-12-07T10:54:50;24.03;;;18.17;;
15114;SDS011;7658;51.456;7.622;2023-12-07T10:57:25;21.13;;;16.60;;
15114;SDS011;7658;51.456;7.622;2023-12-07T10:59:52;20.40;;;16.57;;
15114;SDS011;7658;51.456;7.622;2023-12-07T11:02:20;19.13;;;15.13;;
15114;SDS011;7658;51.456;7.622;2023-12-07T11:04:47;24.00;;;15.80;;
15114;SDS011;7658;51.456;7.622;2023-12-07T11:07:15;18.40;;;15.10;;
15114;SDS011;7658;51.456;7.622;2023-12-07T11:09:45;18.73;;;15.17;;
15114;SDS011;7658;51.456;7.622;2023-12-07T11:12:44;16.20;;;14.13;;
15114;SDS011;7658;51.456;7.622;2023-12-07T11:15:15;18.03;;;14.63;;
15114;SDS011;7658;51.456;7.622;2023-12-07T11:17:52;18.83;;;15.33;;
15114;SDS011;7658;51.456;7.622;2023-12-07T11:20:22;17.47;;;14.60;;
15114;SDS011;7658;51.456;7.622;2023-12-07T11:22:57;17.93;;;14.60;;
15114;SDS011;7658;51.456;7.622;2023-12-07T11:25:22;14.07;;;12.67;;
15114;SDS011;7658;51.456;7.622;2023-12-07T11:27:48;15.20;;;13.37;;
15114;SDS011;7658;51.456;7.622;2023-12-07T11:30:25;16.57;;;13.90;;
15114;SDS011;7658;51.456;7.622;2023-12-07T11:32:51;14.63;;;13.03;;
15114;SDS011;7658;51.456;7.622;2023-12-07T11:35:17;16.07;;;13.40;;
15114;SDS011;7658;51.456;7.622;2023-12-07T11:40:31;14.57;;;12.43;;
15114;SDS011;7658;51.456;7.622;2023-12-07T11:42:59;14.70;;;12.10;;
15114;SDS011;7658;51.456;7.622;2023-12-07T11:45:37;12.70;;;11.17;;
15114;SDS011;7658;51.456;7.622;2023-12-07T11:50:33;12.53;;;10.97;;
15114;SDS011;7658;51.456;7.622;2023-12-07T11:52:59;13.20;;;11.03;;
15114;SDS011;7658;51.456;7.622;2023-12-07T11:55:25;15.00;;;11.93;;
15114;SDS011;7658;51.456;7.622;2023-12-07T11:57:51;12.80;;;11.50;;
15114;SDS011;7658;51.456;7.622;2023-12-07T12:00:17;13.87;;;11.93;;
15114;SDS011;7658;51.456;7.622;2023-12-07T12:02:46;13.30;;;11.90;;
15114;SDS011;7658;51.456;7.622;2023-12-07T12:05:13;15.23;;;12.20;;
15114;SDS011;7658;51.456;7.622;2023-12-07T12:07:39;12.63;;;11.30;;
15114;SDS011;7658;51.456;7.622;2023-12-07T12:10:04;13.47;;;11.70;;
15114;SDS011;7658;51.456;7.622;2023-12-07T12:12:32;13.23;;;11.27;;
15114;SDS011;7658;51.456;7.622;2023-12-07T12:14:58;14.00;;;11.53;;
15114;SDS011;7658;51.456;7.622;2023-12-07T12:17:24;14.30;;;11.13;;
15114;SDS011;7658;51.456;7.622;2023-12-07T12:19:50;13.33;;;12.00;;
15114;SDS011;7658;51.456;7.622;2023-12-07T12:22:19;12.83;;;11.53;;
15114;SDS011;7658;51.456;7.622;2023-12-07T12:24:46;13.53;;;12.10;;
15114;SDS011;7658;51.456;7.622;2023-12-07T12:27:12;13.83;;;11.50;;
15114;SDS011;7658;51.456;7.622;2023-12-07T12:29:39;12.77;;;10.80;;
15114;SDS011;7658;51.456;7.622;2023-12-07T12:32:05;13.87;;;11.03;;
15114;SDS011;7658;51.456;7.622;2023-12-07T12:34:33;12.07;;;10.83;;
15114;SDS011;7658;51.456;7.622;2023-12-07T12:36:59;11.97;;;10.63;;
15114;SDS011;7658;51.456;7.622;2023-12-07T12:39:28;17.77;;;11.30;;
15114;SDS011;7658;51.456;7.622;2023-12-07T12:41:55;14.10;;;10.67;;
15114;SDS011;7658;51.456;7.622;2023-12-07T12:44:23;12.33;;;11.03;;
15114;SDS011;7658;51.456;7.622;2023-12-07T12:46:48;13.07;;;10.50;;
15114;SDS011;7658;51.456;7.622;2023-12-07T12:49:14;12.93;;;10.83;;
15114;SDS011;7658;51.456;7.622;2023-12-07T12:51:41;12.87;;;11.43;;
15114;SDS011;7658;51.456;7.622;2023-12-07T12:54:09;14.93;;;12.27;;
15114;SDS011;7658;51.456;7.622;2023-12-07T12:56:36;13.10;;;11.47;;
15114;SDS011;7658;51.456;7.622;2023-12-07T12:59:02;14.67;;;10.93;;
15114;SDS011;7658;51.456;7.622;2023-12-07T13:01:28;13.43;;;11.27;;
15114;SDS011;7658;51.456;7.622;2023-12-07T13:03:54;13.73;;;10.90;;
15114;SDS011;7658;51.456;7.622;2023-12-07T13:06:20;11.70;;;10.50;;
15114;SDS011;7658;51.456;7.622;2023-12-07T13:08:46;16.50;;;10.37;;
15114;SDS011;7658;51.456;7.622;2023-12-07T13:11:16;12.00;;;10.73;;
15114;SDS011;7658;51.456;7.622;2023-12-07T13:13:44;13.43;;;11.27;;
15114;SDS011;7658;51.456;7.622;2023-12-07T13:16:12;14.10;;;11.20;;
15114;SDS011;7658;51.456;7.622;2023-12-07T13:18:39;12.63;;;10.73;;
15114;SDS011;7658;51.456;7.622;2023-12-07T13:21:05;12.50;;;11.20;;
15114;SDS011;7658;51.456;7.622;2023-12-07T13:23:31;11.50;;;10.40;;
15114;SDS011;7658;51.456;7.622;2023-12-07T13:25:57;10.57;;;9.53;;
15114;SDS011;7658;51.456;7.622;2023-12-07T13:28:23;13.33;;;10.23;;
15114;SDS011;7658;51.456;7.622;2023-12-07T13:30:49;14.97;;;10.87;;
15114;SDS011;7658;51.456;7.622;2023-12-07T13:33:15;11.50;;;10.30;;
15114;SDS011;7658;51.456;7.622;2023-12-07T13:35:41;13.70;;;11.53;;
15114;SDS011;7658;51.456;7.622;2023-12-07T13:38:06;13.30;;;11.23;;
15114;SDS011;7658;51.456;7.622;2023-12-07T13:40:32;14.97;;;11.13;;
15114;SDS011;7658;51.456;7.622;2023-12-07T13:43:00;14.17;;;11.33;;
15114;SDS011;7658;51.456;7.622;2023-12-07T13:45:26;14.37;;;11.10;;
15114;SDS011;7658;51.456;7.622;2023-12-07T13:47:51;13.57;;;11.80;;
15114;SDS011;7658;51.456;7.622;2023-12-07T13:50:17;12.87;;;11.43;;
15114;SDS011;7658;51.456;7.622;2023-12-07T13:52:43;13.80;;;11.40;;
15114;SDS011;7658;51.456;7.622;2023-12-07T13:55:09;14.63;;;11.20;;
15114;SDS011;7658;51.456;7.622;2023-12-07T13:57:34;13.07;;;10.57;;
15114;SDS011;7658;51.456;7.622;2023-12-07T14:00:00;12.23;;;11.00;;
15114;SDS011;7658;51.456;7.622;2023-12-07T14:02:26;12.57;;;11.07;;
15114;SDS011;7658;51.456;7.622;2023-12-07T14:04:53;12.17;;;10.57;;
15114;SDS011;7658;51.456;7.622;2023-12-07T14:07:20;12.10;;;10.83;;
15114;SDS011;7658;51.456;7.622;2023-12-07T14:09:48;14.50;;;11.97;;
15114;SDS011;7658;51.456;7.622;2023-12-07T14:12:15;13.03;;;11.57;;
15114;SDS011;7658;51.456;7.622;2023-12-07T14:14:42;14.60;;;10.50;;
15114;SDS011;7658;51.456;7.622;2023-12-07T14:17:13;12.37;;;11.07;;
15114;SDS011;7658;51.456;7.622;2023-12-07T14:19:40;11.97;;;10.73;;
15114;SDS011;7658;51.456;7.622;2023-12-07T14:22:07;12.40;;;11.10;;
15114;SDS011;7658;51.456;7.622;2023-12-07T14:24:37;12.60;;;11.10;;
15114;SDS011;7658;51.456;7.622;2023-12-07T14:27:03;12.37;;;10.63;;
15114;SDS011;7658;51.456;7.622;2023-12-07T14:29:30;11.40;;;10.30;;
15114;SDS011;7658;51.456;7.622;2023-12-07T14:31:58;12.73;;;11.03;;
15114;SDS011;7658;51.456;7.622;2023-12-07T14:34:24;14.03;;;11.57;;
15114;SDS011;7658;51.456;7.622;2023-12-07T14:36:53;13.80;;;11.70;;